Time;durP1;ratioP1;P1;durP2;ratioP2;P2;SDS_P1;SDS_P2;PMS_P1;PMS_P2;Temp;Humidity;BMP_temperature;BMP_pressure;BME280_temperature;BME280_humidity;BME280_pressure;Samples;Min_cycle;Max_cycle;Signal;HPM_P1;HPM_P2
2022/10/19 00:01:19;;;;;;;0.00;0.00;;;;;;;11.99;100.00;99592.34;4835576;29;20434;-61
2022/10/19 00:03:48;;;;;;;0.00;0.00;;;;;;;12.03;100.00;99581.50;4838760;29;20660;-60
2022/10/19 00:06:17;;;;;;;0.00;0.00;;;;;;;11.97;100.00;99584.63;4835322;29;20237;-60
2022/10/19 00:08:44;;;;;;;0.00;0.00;;;;;;;11.96;100.00;99585.59;4838167;29;20363;-60
2022/10/19 00:11:12;;;;;;;0.00;0.00;;;;;;;11.93;100.00;99591.91;4838678;29;20302;-62
2022/10/19 00:13:39;;;;;;;0.00;0.00;;;;;;;11.91;100.00;99586.00;4846634;29;20273;-59
2022/10/19 00:16:10;;;;;;;0.00;0.00;;;;;;;11.98;100.00;99588.06;4844407;29;20906;-59
2022/10/19 00:18:39;;;;;;;0.00;0.00;;;;;;;11.99;100.00;99595.78;4845786;29;20747;-60
2022/10/19 00:21:06;;;;;;;0.00;0.00;;;;;;;11.89;100.00;99589.72;4845094;29;20252;-60
2022/10/19 00:23:34;;;;;;;0.00;0.00;;;;;;;11.85;100.00;99594.38;4844726;29;20245;-60
2022/10/19 00:26:00;;;;;;;0.00;0.00;;;;;;;11.88;100.00;99583.63;4843827;29;20267;-60
2022/10/19 00:28:27;;;;;;;0.00;0.00;;;;;;;11.82;100.00;99578.94;4849568;29;20293;-60
2022/10/19 00:30:54;;;;;;;0.00;0.00;;;;;;;11.81;100.00;99582.53;4846432;29;20292;-59
2022/10/19 00:33:22;;;;;;;0.00;0.00;;;;;;;11.85;100.00;99575.25;4845878;29;20761;-59
2022/10/19 00:35:51;;;;;;;0.00;0.00;;;;;;;11.86;100.00;99572.47;4860604;29;20247;-58
2022/10/19 00:38:19;;;;;;;0.00;0.00;;;;;;;11.81;100.00;99572.06;4846791;29;20793;-59
2022/10/19 00:40:46;;;;;;;0.00;0.00;;;;;;;11.78;100.00;99572.34;4847929;29;20233;-60
2022/10/19 00:43:14;;;;;;;0.00;0.00;;;;;;;11.77;100.00;99565.44;4845284;29;20248;-59
2022/10/19 00:45:41;;;;;;;0.00;0.00;;;;;;;11.77;100.00;99565.44;4847843;29;20298;-60
2022/10/19 00:48:09;;;;;;;0.00;0.00;;;;;;;11.74;100.00;99578.78;4845791;29;20711;-60
2022/10/19 00:50:36;;;;;;;0.00;0.00;;;;;;;11.74;100.00;99573.56;4850953;29;20605;-61
2022/10/19 00:53:04;;;;;;;0.00;0.00;;;;;;;11.75;100.00;99577.84;4848031;29;20248;-59
2022/10/19 00:55:31;;;;;;;0.00;0.00;;;;;;;11.65;100.00;99570.81;4847749;29;20733;-60
2022/10/19 00:57:58;;;;;;;0.00;0.00;;;;;;;11.64;100.00;99579.63;4849772;29;20551;-64
2022/10/19 01:00:24;;;;;;;0.00;0.00;;;;;;;11.68;100.00;99574.94;4845600;29;20237;-60
2022/10/19 01:02:51;;;;;;;0.00;0.00;;;;;;;11.84;100.00;99581.44;4853412;29;20247;-60
2022/10/19 01:05:18;;;;;;;0.00;0.00;;;;;;;11.76;100.00;99584.72;4843260;29;20315;-59
2022/10/19 01:07:45;;;;;;;0.00;0.00;;;;;;;11.72;100.00;99585.94;4852463;29;20294;-59
2022/10/19 01:10:13;;;;;;;0.00;0.00;;;;;;;11.70;100.00;99580.03;4850782;29;20637;-60
2022/10/19 01:13:06;;;;;;;0.00;0.00;;;;;;;11.69;100.00;99578.38;4850814;29;20238;-58
2022/10/19 01:15:42;;;;;;;0.00;0.00;;;;;;;11.64;100.00;99577.00;4840351;29;20249;-59
2022/10/19 01:18:19;;;;;;;0.00;0.00;;;;;;;11.63;100.00;99571.91;4851185;29;20736;-58
2022/10/19 01:21:21;;;;;;;0.00;0.00;;;;;;;11.62;100.00;99573.69;4852345;29;20294;-59
2022/10/19 01:24:07;;;;;;;0.00;0.00;;;;;;;11.60;100.00;99566.94;4848637;29;20845;-60
2022/10/19 01:26:59;;;;;;;0.00;0.00;;;;;;;11.56;100.00;99565.56;4847045;29;20244;-58
2022/10/19 01:29:44;;;;;;;0.00;0.00;;;;;;;11.56;100.00;99558.56;4849986;29;20237;-59
2022/10/19 01:32:22;;;;;;;0.00;0.00;;;;;;;11.55;100.00;99562.13;4849291;29;20252;-59
2022/10/19 01:34:58;;;;;;;0.00;0.00;;;;;;;11.59;100.00;99560.91;4853752;29;20233;-59
2022/10/19 01:37:34;;;;;;;0.00;0.00;;;;;;;11.54;100.00;99555.25;4849972;29;20241;-60
2022/10/19 01:40:07;;;;;;;0.00;0.00;;;;;;;11.48;100.00;99550.53;4847814;29;20248;-59
2022/10/19 01:42:44;;;;;;;0.00;0.00;;;;;;;11.49;100.00;99553.00;4850396;29;20228;-59
2022/10/19 01:45:16;;;;;;;0.00;0.00;;;;;;;11.46;100.00;99542.81;4845176;29;20232;-59
2022/10/19 01:47:50;;;;;;;0.00;0.00;;;;;;;11.44;100.00;99544.75;4851772;29;20764;-60
2022/10/19 01:50:24;;;;;;;0.00;0.00;;;;;;;11.47;100.00;99541.06;4848381;29;20239;-59
2022/10/19 01:52:52;;;;;;;0.00;0.00;;;;;;;11.52;100.00;99529.22;4852379;29;20239;-59
2022/10/19 01:55:21;;;;;;;0.00;0.00;;;;;;;11.49;100.00;99532.09;4846632;29;20250;-59
2022/10/19 01:57:52;;;;;;;0.00;0.00;;;;;;;11.46;100.00;99526.31;4850202;29;20279;-59
2022/10/19 02:00:21;;;;;;;0.00;0.00;;;;;;;11.49;100.00;99537.31;4849868;29;20252;-59
2022/10/19 02:02:53;;;;;;;0.00;0.00;;;;;;;11.46;100.00;99537.59;4850072;29;20640;-60
2022/10/19 02:05:24;;;;;;;0.00;0.00;;;;;;;11.40;100.00;99532.91;4848435;29;20388;-58
2022/10/19 02:07:55;;;;;;;0.00;0.00;;;;;;;11.38;100.00;99524.34;4850810;29;20301;-58
2022/10/19 02:10:23;;;;;;;0.00;0.00;;;;;;;11.35;100.00;99520.25;4848034;29;20244;-59
2022/10/19 02:12:52;;;;;;;0.00;0.00;;;;;;;11.34;100.00;99523.81;4850975;29;20243;-60
2022/10/19 02:15:22;;;;;;;0.00;0.00;;;;;;;11.47;100.00;99523.56;4847015;29;20722;-59
2022/10/19 02:17:55;;;;;;;0.00;0.00;;;;;;;11.46;100.00;99526.31;4851295;29;20237;-58
2022/10/19 02:20:22;;;;;;;0.00;0.00;;;;;;;11.49;100.00;99519.03;4846927;29;20767;-59
2022/10/19 02:22:49;;;;;;;0.00;0.00;;;;;;;11.50;100.00;99515.44;4850400;29;20240;-58
2022/10/19 02:25:16;;;;;;;0.00;0.00;;;;;;;11.47;100.00;99513.09;4848312;29;20224;-58
2022/10/19 02:27:43;;;;;;;0.00;0.00;;;;;;;11.57;100.00;99507.91;4851473;29;20237;-59
2022/10/19 02:30:11;;;;;;;0.00;0.00;;;;;;;11.60;100.00;99507.63;4846574;29;20233;-59
2022/10/19 02:32:37;;;;;;;0.00;0.00;;;;;;;11.66;100.00;99506.25;4852380;29;20293;-59
2022/10/19 02:35:06;;;;;;;0.00;0.00;;;;;;;11.63;100.00;99509.13;4849188;29;20240;-59
2022/10/19 02:37:33;;;;;;;0.00;0.00;;;;;;;11.52;100.00;99510.91;4850094;29;20278;-59
2022/10/19 02:40:00;;;;;;;0.00;0.00;;;;;;;11.48;100.00;99506.91;4845776;29;20241;-60
2022/10/19 02:42:32;;;;;;;0.00;0.00;;;;;;;11.45;100.00;99511.59;4850850;29;20242;-59
2022/10/19 02:45:05;;;;;;;0.00;0.00;;;;;;;11.38;100.00;99513.91;4847895;29;20237;-60
2022/10/19 02:47:36;;;;;;;0.00;0.00;;;;;;;11.37;100.00;99515.72;4851099;29;20244;-59
2022/10/19 02:50:07;;;;;;;0.00;0.00;;;;;;;11.24;100.00;99515.13;4845338;29;20773;-59
2022/10/19 02:52:33;;;;;;;0.00;0.00;;;;;;;11.18;100.00;99513.03;4849480;29;20253;-58
2022/10/19 02:55:00;;;;;;;0.00;0.00;;;;;;;11.07;100.00;99509.56;4846870;29;20233;-59
2022/10/19 02:57:26;;;;;;;0.00;0.00;;;;;;;11.01;100.00;99507.47;4848888;29;20653;-60
2022/10/19 02:59:53;;;;;;;0.00;0.00;;;;;;;10.98;100.00;99499.09;4848641;29;20236;-58
2022/10/19 03:02:20;;;;;;;0.00;0.00;;;;;;;10.92;100.00;99493.44;4847999;29;20252;-58
2022/10/19 03:04:47;;;;;;;0.00;0.00;;;;;;;10.87;100.00;99494.75;4848419;29;20233;-58
2022/10/19 03:07:17;;;;;;;0.00;0.00;;;;;;;10.83;100.00;99486.38;4844936;29;20256;-58
2022/10/19 03:09:44;;;;;;;0.00;0.00;;;;;;;10.82;100.00;99487.34;4851783;29;20286;-58
2022/10/19 03:12:11;;;;;;;0.00;0.00;;;;;;;10.88;100.00;99480.75;4849266;29;20301;-58
2022/10/19 03:14:37;;;;;;;0.00;0.00;;;;;;;10.86;100.00;99480.91;4849744;29;20744;-59
2022/10/19 03:17:05;;;;;;;0.00;0.00;;;;;;;10.82;100.00;99483.88;4847526;29;20654;-58
2022/10/19 03:19:32;;;;;;;0.00;0.00;;;;;;;10.78;100.00;99478.09;4844741;29;20241;-58
2022/10/19 03:21:58;;;;;;;0.00;0.00;;;;;;;10.76;100.00;99474.81;4845254;29;20242;-59
2022/10/19 03:24:27;;;;;;;0.00;0.00;;;;;;;10.63;100.00;99472.38;4847301;29;20239;-59
2022/10/19 03:26:53;;;;;;;0.00;0.00;;;;;;;10.61;100.00;99474.31;4850204;29;20243;-60
2022/10/19 03:29:20;;;;;;;0.00;0.00;;;;;;;10.55;100.00;99472.25;4849938;29;20263;-59
2022/10/19 03:31:46;;;;;;;0.00;0.00;;;;;;;10.52;100.00;99468.09;5029667;23;20773;-60
2022/10/19 03:34:13;;;;;;;0.00;0.00;;;;;;;10.53;100.00;99472.34;4835476;29;20324;-59
2022/10/19 03:36:40;;;;;;;0.00;0.00;;;;;;;10.58;100.00;99474.59;4836573;29;20756;-59
2022/10/19 03:39:10;;;;;;;0.00;0.00;;;;;;;10.56;100.00;99471.28;4835358;29;20263;-59
2022/10/19 03:41:39;;;;;;;0.00;0.00;;;;;;;10.59;100.00;99466.63;4837686;29;20255;-59
2022/10/19 03:44:06;;;;;;;0.00;0.00;;;;;;;10.53;100.00;99461.91;4835067;29;20611;-59
2022/10/19 03:46:34;;;;;;;0.00;0.00;;;;;;;10.54;100.00;99460.16;4837293;29;20640;-59
2022/10/19 03:49:00;;;;;;;0.00;0.00;;;;;;;10.56;100.00;99458.22;4833275;29;20254;-59
2022/10/19 03:51:29;;;;;;;0.00;0.00;;;;;;;10.56;100.00;99456.44;4836952;29;20249;-60
2022/10/19 03:53:57;;;;;;;0.00;0.00;;;;;;;10.53;100.00;99461.09;4835490;29;20321;-60
2022/10/19 03:56:26;;;;;;;0.00;0.00;;;;;;;10.48;100.00;99464.94;4833206;29;20271;-58
2022/10/19 03:58:55;;;;;;;0.00;0.00;;;;;;;10.48;100.00;99466.69;4836052;29;20236;-59
2022/10/19 04:01:24;;;;;;;0.00;0.00;;;;;;;10.43;100.00;99467.09;4854550;23;20255;-62
2022/10/19 04:03:53;;;;;;;0.00;0.00;;;;;;;10.44;100.00;99457.47;4851954;29;20302;-62
2022/10/19 04:06:21;;;;;;;0.00;0.00;;;;;;;10.40;100.00;99456.06;4850354;29;20300;-62
2022/10/19 04:08:49;;;;;;;0.00;0.00;;;;;;;10.42;100.00;99464.59;4851703;29;20247;-63
2022/10/19 04:11:17;;;;;;;0.00;0.00;;;;;;;10.44;100.00;99463.53;4850165;29;20304;-62
2022/10/19 04:13:44;;;;;;;0.00;0.00;;;;;;;10.44;100.00;99466.13;4850292;29;20235;-62
2022/10/19 04:16:14;;;;;;;0.00;0.00;;;;;;;10.40;100.00;99458.69;4844628;29;20244;-63
2022/10/19 04:18:40;;;;;;;0.00;0.00;;;;;;;10.33;100.00;99461.78;4849862;29;20253;-63
2022/10/19 04:21:07;;;;;;;0.00;0.00;;;;;;;10.30;100.00;99463.81;4849978;29;20305;-63
2022/10/19 04:23:37;;;;;;;0.00;0.00;;;;;;;10.26;100.00;99465.84;4850120;29;20251;-62
2022/10/19 04:26:06;;;;;;;0.00;0.00;;;;;;;10.23;100.00;99467.91;4847425;29;20243;-62
2022/10/19 04:28:33;;;;;;;0.00;0.00;;;;;;;10.19;100.00;99460.31;4851365;29;20251;-62
2022/10/19 04:31:02;;;;;;;0.00;0.00;;;;;;;10.22;100.00;99467.06;4849313;29;20643;-62
2022/10/19 04:33:30;;;;;;;0.00;0.00;;;;;;;10.19;100.00;99467.31;4850672;29;20251;-61
2022/10/19 04:35:58;;;;;;;0.00;0.00;;;;;;;10.16;100.00;99470.19;4850512;29;20250;-62
2022/10/19 04:38:25;;;;;;;0.00;0.00;;;;;;;10.08;100.00;99473.44;4851792;29;20247;-62
2022/10/19 04:40:52;;;;;;;0.00;0.00;;;;;;;10.05;100.00;99468.47;4854876;29;20322;-62
2022/10/19 04:43:18;;;;;;;0.00;0.00;;;;;;;10.04;100.00;99465.03;4853392;29;20330;-62
2022/10/19 04:45:45;;;;;;;0.00;0.00;;;;;;;10.05;100.00;99468.47;4855996;29;20300;-62
2022/10/19 04:48:11;;;;;;;0.00;0.00;;;;;;;10.03;100.00;99467.75;4852200;29;21136;-62
2022/10/19 04:50:39;;;;;;;0.00;0.00;;;;;;;10.07;100.00;99465.75;4855646;29;20817;-62
2022/10/19 04:53:06;;;;;;;0.00;0.00;;;;;;;10.02;100.00;99469.56;4851551;29;20227;-62
2022/10/19 04:55:32;;;;;;;0.00;0.00;;;;;;;9.95;100.00;99468.41;4854232;29;20296;-62
2022/10/19 04:57:59;;;;;;;0.00;0.00;;;;;;;9.92;100.00;99468.66;4853550;29;20251;-62
2022/10/19 05:00:25;;;;;;;0.00;0.00;;;;;;;9.86;100.00;99456.94;4854102;29;20254;-62
2022/10/19 05:02:52;;;;;;;0.00;0.00;;;;;;;9.80;100.00;99462.66;4854019;29;20318;-62
2022/10/19 05:05:18;;;;;;;0.00;0.00;;;;;;;9.81;100.00;99466.09;4851893;29;20254;-62
2022/10/19 05:07:48;;;;;;;0.00;0.00;;;;;;;9.80;100.00;99460.03;4854299;29;20250;-62
2022/10/19 05:10:15;;;;;;;0.00;0.00;;;;;;;9.80;100.00;99467.06;4851397;29;20721;-62
2022/10/19 05:12:41;;;;;;;0.00;0.00;;;;;;;9.75;100.00;99465.66;4852133;29;20239;-62
2022/10/19 05:15:09;;;;;;;0.00;0.00;;;;;;;9.84;100.00;99468.47;4851069;29;20753;-62
2022/10/19 05:17:36;;;;;;;0.00;0.00;;;;;;;9.91;100.00;99472.22;4853490;29;20238;-62
2022/10/19 05:20:02;;;;;;;0.00;0.00;;;;;;;10.02;100.00;99469.56;4849471;29;20288;-62
2022/10/19 05:22:29;;;;;;;0.00;0.00;;;;;;;10.15;100.00;99469.38;4852312;29;20243;-62
2022/10/19 05:24:57;;;;;;;0.00;0.00;;;;;;;10.30;100.00;99469.84;4854373;29;20238;-62
2022/10/19 05:27:23;;;;;;;0.00;0.00;;;;;;;10.49;100.00;99468.34;4851854;29;20319;-62
2022/10/19 05:29:50;;;;;;;0.00;0.00;;;;;;;10.59;100.00;99465.81;4854707;29;20248;-62
2022/10/19 05:32:16;;;;;;;0.00;0.00;;;;;;;10.68;100.00;99475.44;4847775;29;20257;-62
2022/10/19 05:34:43;;;;;;;0.00;0.00;;;;;;;10.76;100.00;99470.38;4850187;29;20774;-62
2022/10/19 05:37:09;;;;;;;0.00;0.00;;;;;;;10.89;100.00;99467.56;4851629;29;20244;-62
2022/10/19 05:39:36;;;;;;;0.00;0.00;;;;;;;10.88;100.00;99463.31;4854780;29;20303;-62
2022/10/19 05:42:04;;;;;;;0.00;0.00;;;;;;;10.93;100.00;99458.50;4851916;29;20284;-62
2022/10/19 05:44:30;;;;;;;0.00;0.00;;;;;;;10.96;100.00;99457.41;4853875;29;20783;-62
2022/10/19 05:46:57;;;;;;;0.00;0.00;;;;;;;10.98;100.00;99452.06;4851735;29;20458;-62
2022/10/19 05:49:24;;;;;;;0.00;0.00;;;;;;;11.02;100.00;99462.09;4849671;29;20329;-62
2022/10/19 05:51:50;;;;;;;0.00;0.00;;;;;;;11.05;100.00;99456.63;4852720;29;20319;-62
2022/10/19 05:54:17;;;;;;;0.00;0.00;;;;;;;11.10;100.00;99458.00;4850808;29;20296;-62
2022/10/19 05:56:44;;;;;;;0.00;0.00;;;;;;;11.10;100.00;99455.38;4853313;29;20741;-62
2022/10/19 05:59:15;;;;;;;0.00;0.00;;;;;;;11.09;100.00;99459.81;4849544;29;20236;-62
2022/10/19 06:01:42;;;;;;;0.00;0.00;;;;;;;11.06;100.00;99463.50;4853261;29;20754;-62
2022/10/19 06:04:09;;;;;;;0.00;0.00;;;;;;;11.11;100.00;99465.72;4851784;29;20247;-62
2022/10/19 06:06:36;;;;;;;0.00;0.00;;;;;;;11.14;100.00;99460.19;4853408;29;20248;-62
2022/10/19 06:09:03;;;;;;;0.00;0.00;;;;;;;11.17;100.00;99466.97;4850532;29;20246;-62
2022/10/19 06:11:33;;;;;;;0.00;0.00;;;;;;;11.19;100.00;99468.47;4853430;29;20258;-62
2022/10/19 06:14:01;;;;;;;0.00;0.00;;;;;;;11.22;100.00;99468.19;4848098;29;20297;-62
2022/10/19 06:16:30;;;;;;;0.00;0.00;;;;;;;11.21;100.00;99471.78;4853697;29;20331;-62
2022/10/19 06:18:58;;;;;;;0.00;0.00;;;;;;;11.21;100.00;99468.34;4851720;29;20233;-62
2022/10/19 06:21:27;;;;;;;0.00;0.00;;;;;;;11.25;100.00;99479.34;4849316;29;20784;-62
2022/10/19 06:23:56;;;;;;;0.00;0.00;;;;;;;11.19;100.00;99480.72;4851537;29;20243;-62
2022/10/19 06:26:22;;;;;;;0.00;0.00;;;;;;;11.22;100.00;99477.84;4863535;29;20245;-62
2022/10/19 06:28:50;;;;;;;0.00;0.00;;;;;;;11.17;100.00;99477.41;4853705;29;20285;-62
2022/10/19 06:31:16;;;;;;;0.00;0.00;;;;;;;11.15;100.00;99474.09;4849367;29;20239;-62
2022/10/19 06:33:45;;;;;;;0.00;0.00;;;;;;;11.13;100.00;99474.22;4849016;29;20784;-62
2022/10/19 06:36:14;;;;;;;0.00;0.00;;;;;;;11.13;100.00;99473.41;4849748;29;20244;-62
2022/10/19 06:38:42;;;;;;;0.00;0.00;;;;;;;11.11;100.00;99473.56;4853052;29;20636;-62
2022/10/19 06:41:09;;;;;;;0.00;0.00;;;;;;;11.14;100.00;99485.50;4849157;29;20240;-62
2022/10/19 06:43:36;;;;;;;0.00;0.00;;;;;;;11.12;100.00;99477.81;4852025;29;20720;-62
2022/10/19 06:46:05;;;;;;;0.00;0.00;;;;;;;11.14;100.00;99472.44;4849183;29;20288;-62
2022/10/19 06:48:31;;;;;;;0.00;0.00;;;;;;;11.15;100.00;99471.50;4848581;29;20238;-62
2022/10/19 06:51:01;;;;;;;0.00;0.00;;;;;;;11.13;100.00;99474.22;4851962;29;20266;-62
2022/10/19 06:53:28;;;;;;;0.00;0.00;;;;;;;11.12;100.00;99475.22;4848796;29;20300;-62
2022/10/19 06:55:57;;;;;;;0.00;0.00;;;;;;;11.04;100.00;99464.59;4850186;29;20336;-62
2022/10/19 06:58:25;;;;;;;0.00;0.00;;;;;;;11.03;100.00;99466.38;4845756;29;20240;-62
2022/10/19 07:00:55;;;;;;;0.00;0.00;;;;;;;10.96;100.00;99462.63;4847771;29;20238;-62
2022/10/19 07:03:22;;;;;;;0.00;0.00;;;;;;;10.95;100.00;99465.41;4847800;29;20248;-63
2022/10/19 07:05:53;;;;;;;0.00;0.00;;;;;;;10.87;100.00;99472.09;4850501;29;20259;-63
2022/10/19 07:08:21;;;;;;;0.00;0.00;;;;;;;10.88;100.00;99468.53;4845388;29;20236;-62
2022/10/19 07:10:50;;;;;;;0.00;0.00;;;;;;;10.86;100.00;99467.84;4850177;29;20699;-62
2022/10/19 07:13:17;;;;;;;0.00;0.00;;;;;;;10.87;100.00;99472.09;4849171;29;20313;-62
2022/10/19 07:15:43;;;;;;;0.00;0.00;;;;;;;10.89;100.00;99470.19;4850007;29;20240;-62
2022/10/19 07:18:10;;;;;;;0.00;0.00;;;;;;;10.93;100.00;99471.56;4847929;29;20236;-62
2022/10/19 07:20:36;;;;;;;0.00;0.00;;;;;;;10.92;100.00;99466.47;4852992;29;20252;-62
2022/10/19 07:23:03;;;;;;;0.00;0.00;;;;;;;10.95;100.00;99471.44;4849664;29;20240;-61
2022/10/19 07:25:31;;;;;;;0.00;0.00;;;;;;;11.06;100.00;99470.53;4851891;29;20241;-62
2022/10/19 07:27:58;;;;;;;0.00;0.00;;;;;;;11.18;100.00;99469.41;4851207;29;20295;-63
2022/10/19 07:30:24;;;;;;;0.00;0.00;;;;;;;11.26;100.00;99471.38;4841888;29;20233;-63
2022/10/19 07:32:51;;;;;;;0.00;0.00;;;;;;;11.35;100.00;99473.19;4851018;29;20244;-63
2022/10/19 07:35:17;;;;;;;0.00;0.00;;;;;;;11.49;100.00;99469.34;4848393;29;20244;-62
2022/10/19 07:37:44;;;;;;;0.00;0.00;;;;;;;11.61;100.00;99470.06;4849885;29;20271;-63
2022/10/19 07:40:12;;;;;;;0.00;0.00;;;;;;;11.72;100.00;99468.25;4847960;29;20236;-62
2022/10/19 07:42:40;;;;;;;0.00;0.00;;;;;;;11.77;100.00;99466.06;4850566;29;20243;-63
2022/10/19 07:45:07;;;;;;;0.00;0.00;;;;;;;11.93;100.00;99470.75;4848082;29;20313;-63
2022/10/19 07:47:34;;;;;;;0.00;0.00;;;;;;;12.03;100.00;99470.75;4850532;29;20241;-63
2022/10/19 07:50:01;;;;;;;0.00;0.00;;;;;;;12.15;100.00;99474.88;4849010;29;20655;-63
2022/10/19 07:52:27;;;;;;;0.00;0.00;;;;;;;12.27;100.00;99462.44;4847167;29;20250;-63
2022/10/19 07:54:54;;;;;;;0.00;0.00;;;;;;;12.49;100.00;99471.78;4848554;29;20323;-63
2022/10/19 07:57:21;;;;;;;0.00;0.00;;;;;;;12.54;100.00;99472.19;4848827;29;20240;-63
2022/10/19 07:59:49;;;;;;;0.00;0.00;;;;;;;12.73;100.00;99473.06;4850328;29;20318;-63
2022/10/19 08:02:16;;;;;;;0.00;0.00;;;;;;;12.83;100.00;99473.84;4850001;29;20306;-63
2022/10/19 08:04:43;;;;;;;0.00;0.00;;;;;;;12.75;100.00;99476.34;4849739;29;20244;-63
2022/10/19 08:07:09;;;;;;;0.00;0.00;;;;;;;12.71;100.00;99475.03;4848726;29;20250;-63
2022/10/19 08:09:36;;;;;;;0.00;0.00;;;;;;;12.76;100.00;99478.00;4852238;29;20245;-63
2022/10/19 08:12:03;;;;;;;0.00;0.00;;;;;;;12.89;100.00;99476.84;4848906;29;20257;-63
2022/10/19 08:14:30;;;;;;;0.00;0.00;;;;;;;12.98;100.00;99474.22;4851109;29;20244;-63
2022/10/19 08:16:58;;;;;;;0.00;0.00;;;;;;;13.16;100.00;99475.22;4849557;29;20244;-63
2022/10/19 08:19:24;;;;;;;0.00;0.00;;;;;;;13.29;100.00;99471.25;4845330;29;20240;-62
2022/10/19 08:21:51;;;;;;;0.00;0.00;;;;;;;13.42;100.00;99476.19;4851689;29;20729;-62
2022/10/19 08:24:19;;;;;;;0.00;0.00;;;;;;;13.60;100.00;99480.63;4847691;29;20247;-62
2022/10/19 08:26:46;;;;;;;0.00;0.00;;;;;;;13.71;100.00;99472.53;4849430;29;20234;-63
2022/10/19 08:29:17;;;;;;;0.00;0.00;;;;;;;13.91;100.00;99469.72;4847426;29;20330;-63
2022/10/19 08:31:45;;;;;;;0.00;0.00;;;;;;;14.06;100.00;99472.66;4850944;29;20242;-63
2022/10/19 08:34:14;;;;;;;0.00;0.00;;;;;;;14.30;100.00;99476.44;4848507;29;20251;-63
2022/10/19 08:36:41;;;;;;;0.00;0.00;;;;;;;14.20;100.00;99471.28;4850766;29;20287;-63
2022/10/19 08:39:11;;;;;;;0.00;0.00;;;;;;;14.21;100.00;99475.53;4849131;29;20234;-63
2022/10/19 08:41:52;;;;;;;0.00;0.00;;;;;;;14.09;100.00;99474.97;4850703;29;20238;-63
2022/10/19 08:44:52;;;;;;;0.00;0.00;;;;;;;13.97;100.00;99470.94;4848726;29;22026;-63
2022/10/19 08:47:30;;;;;;;0.00;0.00;;;;;;;13.92;100.00;99475.81;4848675;29;20297;-63
2022/10/19 08:49:59;;;;;;;0.00;0.00;;;;;;;13.95;100.00;99478.16;4851113;29;20255;-63
2022/10/19 08:52:29;;;;;;;0.00;0.00;;;;;;;13.93;100.00;99470.41;4849586;29;20730;-63
2022/10/19 08:54:58;;;;;;;0.00;0.00;;;;;;;13.98;100.00;99468.16;4849018;29;20246;-63
2022/10/19 08:57:36;;;;;;;0.00;0.00;;;;;;;14.09;100.00;99466.25;4849129;29;20251;-63
2022/10/19 09:00:07;;;;;;;0.00;0.00;;;;;;;14.09;100.00;99466.25;4848291;29;20237;-63
2022/10/19 09:02:53;;;;;;;0.00;0.00;;;;;;;14.04;100.00;99466.75;4850360;29;20232;-63
2022/10/19 09:05:32;;;;;;;0.00;0.00;;;;;;;13.98;100.00;99462.91;4844973;29;20247;-63
2022/10/19 09:07:59;;;;;;;0.00;0.00;;;;;;;14.10;100.00;99465.28;4851663;29;20288;-63
2022/10/19 09:10:29;;;;;;;0.00;0.00;;;;;;;14.20;100.00;99458.13;4849027;29;20242;-63
2022/10/19 09:12:59;;;;;;;0.00;0.00;;;;;;;14.37;100.00;99461.69;4851430;29;20245;-63
2022/10/19 09:15:28;;;;;;;0.00;0.00;;;;;;;14.52;100.00;99461.97;4848780;29;20234;-63
2022/10/19 09:17:55;;;;;;;0.00;0.00;;;;;;;14.75;100.00;99451.75;4847936;29;20238;-63
2022/10/19 09:20:29;;;;;;;0.00;0.00;;;;;;;15.09;100.00;99451.88;4845811;29;20712;-63
2022/10/19 09:23:03;;;;;;;0.00;0.00;;;;;;;15.10;100.00;99450.91;4851546;29;20246;-63
2022/10/19 09:25:33;;;;;;;0.00;0.00;;;;;;;15.31;100.00;99447.81;4853097;29;20312;-63
2022/10/19 09:28:12;;;;;;;0.00;0.00;;;;;;;15.40;100.00;99449.47;4852826;29;20311;-63
2022/10/19 09:30:42;;;;;;;0.00;0.00;;;;;;;15.61;100.00;99448.19;4840187;29;20243;-63
2022/10/19 09:33:18;;;;;;;0.00;0.00;;;;;;;15.67;100.00;99441.44;4848860;29;20232;-63
2022/10/19 09:35:46;;;;;;;0.00;0.00;;;;;;;15.90;100.00;99442.47;4852768;29;20241;-63
2022/10/19 09:38:16;;;;;;;0.00;0.00;;;;;;;16.01;100.00;99440.50;4851821;29;20251;-63
2022/10/19 09:40:44;;;;;;;0.00;0.00;;;;;;;16.09;100.00;99438.66;4854030;29;20267;-63
2022/10/19 09:43:19;;;;;;;0.00;0.00;;;;;;;16.36;100.00;99427.94;4850320;29;20296;-63
2022/10/19 09:45:52;;;;;;;0.00;0.00;;;;;;;16.43;100.00;99428.88;4855193;29;20267;-63
2022/10/19 09:48:27;;;;;;;0.00;0.00;;;;;;;16.29;100.00;99421.69;4851390;29;20239;-63
2022/10/19 09:50:57;;;;;;;0.00;0.00;;;;;;;16.36;100.00;99423.47;4854575;29;20247;-63
2022/10/19 09:53:25;;;;;;;0.00;0.00;;;;;;;16.49;100.00;99422.91;4850558;29;20244;-63
2022/10/19 09:55:58;;;;;;;0.00;0.00;;;;;;;16.30;100.00;99431.22;4853653;29;20292;-63
2022/10/19 09:58:27;;;;;;;0.00;0.00;;;;;;;16.23;100.00;99420.53;4851593;29;20248;-63
2022/10/19 10:00:55;;;;;;;0.00;0.00;;;;;;;16.26;100.00;99422.81;4850815;29;20312;-63
2022/10/19 10:03:25;;;;;;;0.00;0.00;;;;;;;16.49;100.00;99422.09;4848030;29;20249;-63
2022/10/19 10:05:53;;;;;;;0.00;0.00;;;;;;;16.65;100.00;99419.41;4853613;29;20239;-63
2022/10/19 10:08:24;;;;;;;0.00;0.00;;;;;;;16.88;100.00;99416.03;4852263;29;20252;-63
2022/10/19 10:10:56;;;;;;;0.00;0.00;;;;;;;17.13;100.00;99407.19;4853887;29;20238;-63
2022/10/19 10:13:26;;;;;;;0.00;0.00;;;;;;;17.27;100.00;99411.72;4847273;29;20249;-63
2022/10/19 10:15:57;;;;;;;0.00;0.00;;;;;;;17.54;99.26;99415.63;4849011;29;20257;-63
2022/10/19 10:18:25;;;;;;;0.00;0.00;;;;;;;17.52;98.79;99408.88;4849958;29;20246;-63
2022/10/19 10:21:01;;;;;;;0.00;0.00;;;;;;;17.80;98.06;99405.69;4851286;29;20241;-63
2022/10/19 10:23:34;;;;;;;0.00;0.00;;;;;;;17.80;96.69;99411.81;4840262;29;20239;-63
2022/10/19 10:26:01;;;;;;;0.00;0.00;;;;;;;17.72;97.37;99417.16;4851286;29;20852;-63
2022/10/19 10:28:29;;;;;;;0.00;0.00;;;;;;;17.68;98.86;99408.75;4851913;29;20231;-63
2022/10/19 10:31:01;;;;;;;0.00;0.00;;;;;;;17.82;99.19;99406.34;4848436;29;20244;-63
2022/10/19 10:33:29;;;;;;;0.00;0.00;;;;;;;17.98;98.02;99406.19;4850103;29;20246;-63
2022/10/19 10:36:02;;;;;;;0.00;0.00;;;;;;;18.10;97.88;99405.78;4852074;29;20250;-63
2022/10/19 10:38:33;;;;;;;0.00;0.00;;;;;;;17.98;96.64;99405.38;4851763;29;20297;-63
2022/10/19 10:41:04;;;;;;;0.00;0.00;;;;;;;17.89;96.91;99399.34;4849694;29;20327;-63
2022/10/19 10:43:33;;;;;;;0.00;0.00;;;;;;;17.77;99.29;99398.97;4852112;29;20608;-63
2022/10/19 10:46:03;;;;;;;0.00;0.00;;;;;;;17.74;100.00;99396.69;4850918;29;20284;-63
2022/10/19 10:48:33;;;;;;;0.00;0.00;;;;;;;17.75;100.00;99397.47;4853927;29;20239;-63
2022/10/19 10:51:01;;;;;;;0.00;0.00;;;;;;;17.84;100.00;99393.78;4849719;29;20245;-63
2022/10/19 10:53:38;;;;;;;0.00;0.00;;;;;;;17.82;100.00;99398.41;4850313;29;20234;-63
2022/10/19 10:56:19;;;;;;;0.00;0.00;;;;;;;17.59;100.00;99393.97;4849056;29;20731;-63
2022/10/19 10:58:50;;;;;;;0.00;0.00;;;;;;;17.64;100.00;99390.81;4850947;29;20244;-63
2022/10/19 11:01:21;;;;;;;0.00;0.00;;;;;;;17.75;100.00;99394.84;4848340;29;20584;-63
2022/10/19 11:03:54;;;;;;;0.00;0.00;;;;;;;17.74;100.00;99388.75;4850107;29;20234;-63
2022/10/19 11:06:25;;;;;;;0.00;0.00;;;;;;;17.81;100.00;99388.84;4851300;29;20243;-63
2022/10/19 11:09:04;;;;;;;0.00;0.00;;;;;;;17.93;100.00;99378.69;4852644;29;20242;-63
2022/10/19 11:11:36;;;;;;;0.00;0.00;;;;;;;17.99;100.00;99381.44;4850192;29;20251;-63
2022/10/19 11:14:19;;;;;;;0.00;0.00;;;;;;;18.01;99.76;99376.00;4850103;29;20708;-64
2022/10/19 11:16:48;;;;;;;0.00;0.00;;;;;;;17.89;100.00;99369.47;4866783;29;20372;-63
2022/10/19 11:19:21;;;;;;;0.00;0.00;;;;;;;17.78;100.00;99361.00;4847793;29;20740;-63
2022/10/19 11:21:56;;;;;;;0.00;0.00;;;;;;;17.78;100.00;99361.00;4855866;29;20407;-63
2022/10/19 11:24:35;;;;;;;0.00;0.00;;;;;;;17.90;100.00;99358.72;4848405;29;20755;-63
2022/10/19 11:27:16;;;;;;;0.00;0.00;;;;;;;17.91;100.00;99360.34;4864205;29;20658;-63
2022/10/19 11:29:58;;;;;;;0.00;0.00;;;;;;;18.07;100.00;99364.66;4852203;29;20240;-63
2022/10/19 11:32:35;;;;;;;0.00;0.00;;;;;;;18.18;98.84;99359.94;4848271;29;20322;-63
2022/10/19 11:35:30;;;;;;;0.00;0.00;;;;;;;18.25;98.89;99342.34;4847354;29;20629;-62
2022/10/19 11:38:06;;;;;;;0.00;0.00;;;;;;;18.44;96.20;99351.56;4852338;29;20735;-63